Time;durP1;ratioP1;P1;durP2;ratioP2;P2;SDS_P1;SDS_P2;PMS_P1;PMS_P2;Temp;Humidity;BMP_temperature;BMP_pressure;BME280_temperature;BME280_humidity;BME280_pressure;Samples;Min_cycle;Max_cycle;Signal;HPM_P1;HPM_P2
2023/08/18 00:01:11;;;;;;;4.50;4.10;;;;;;;20.95;100.00;100404.88;5041258;28;20046;-74
2023/08/18 00:03:40;;;;;;;;;;;;;;;20.93;100.00;100406.03;5024141;28;20061;-74
2023/08/18 00:06:15;;;;;;;4.63;4.13;;;;;;;20.90;100.00;100399.09;5032085;28;19975;-74
2023/08/18 00:08:45;;;;;;;4.72;4.32;;;;;;;20.91;100.00;100402.63;5019094;28;20042;-73
2023/08/18 00:11:14;;;;;;;6.70;4.35;;;;;;;20.83;100.00;100394.38;5019231;28;20164;-74
2023/08/18 00:13:47;;;;;;;5.45;4.30;;;;;;;20.82;100.00;100390.84;5030284;28;20044;-74
2023/08/18 00:16:16;;;;;;;4.88;4.22;;;;;;;20.89;100.00;100393.84;5011424;28;20433;-74
2023/08/18 00:18:47;;;;;;;4.90;4.30;;;;;;;20.88;100.00;100394.81;5012796;28;20099;-73
2023/08/18 00:21:17;;;;;;;4.60;4.20;;;;;;;20.83;100.00;100392.53;5030144;28;20045;-74
2023/08/18 00:23:49;;;;;;;4.65;4.20;;;;;;;20.83;100.00;100391.69;5003434;28;20087;-73
2023/08/18 00:26:17;;;;;;;7.25;4.80;;;;;;;20.82;100.00;100395.38;5010826;28;20511;-74
2023/08/18 00:28:46;;;;;;;6.82;4.60;;;;;;;20.80;100.00;100392.81;5038035;28;20050;-74
2023/08/18 00:31:14;;;;;;;4.50;4.10;;;;;;;20.79;100.00;100393.78;5002502;28;20045;-74
2023/08/18 00:33:43;;;;;;;5.50;4.50;;;;;;;20.76;100.00;100398.63;5021195;28;20033;-74
2023/08/18 00:36:18;;;;;;;4.70;4.20;;;;;;;20.75;100.00;100399.63;5029777;28;20111;-74
2023/08/18 00:38:48;;;;;;;6.75;4.70;;;;;;;20.71;100.00;100399.03;5012808;28;20571;-73
2023/08/18 00:41:17;;;;;;;5.85;4.43;;;;;;;20.69;100.00;100400.16;5013855;28;20107;-74
2023/08/18 00:43:46;;;;;;;4.57;4.18;;;;;;;20.65;100.00;100402.25;5013125;28;20099;-74
2023/08/18 00:46:19;;;;;;;6.28;4.97;;;;;;;20.60;100.00;100400.00;5012188;28;20410;-73
2023/08/18 00:48:49;;;;;;;5.07;4.60;;;;;;;20.61;100.00;100403.53;5014951;28;20046;-74
2023/08/18 00:51:18;;;;;;;5.60;4.95;;;;;;;20.63;100.00;100406.91;5038722;28;20076;-74
2023/08/18 00:53:49;;;;;;;4.90;4.40;;;;;;;20.63;100.00;100399.69;5013204;28;20050;-74
2023/08/18 00:56:18;;;;;;;6.80;4.20;;;;;;;20.57;100.00;100402.09;5008630;28;20782;-74
2023/08/18 00:58:50;;;;;;;4.90;4.13;;;;;;;20.50;100.00;100385.63;5014197;28;20045;-74
2023/08/18 01:01:20;;;;;;;6.80;4.40;;;;;;;20.51;100.00;100391.88;5029190;28;20046;-74
2023/08/18 01:03:50;;;;;;;5.40;4.80;;;;;;;20.52;100.00;100394.41;5016412;28;20076;-74
2023/08/18 01:06:21;;;;;;;4.95;4.50;;;;;;;20.48;100.00;100390.28;5010661;28;20037;-73
2023/08/18 01:08:53;;;;;;;8.57;4.53;;;;;;;20.47;100.00;100395.81;5008313;28;20080;-73
2023/08/18 01:11:29;;;;;;;5.70;4.78;;;;;;;20.41;100.00;100389.16;4998253;28;20473;-73
2023/08/18 01:14:07;;;;;;;5.35;4.82;;;;;;;20.41;100.00;100399.06;4999858;28;20061;-73
2023/08/18 01:16:40;;;;;;;5.82;4.97;;;;;;;20.42;100.00;100392.69;4993997;28;20045;-73
2023/08/18 01:19:14;;;;;;;5.32;4.82;;;;;;;20.42;100.00;100395.38;5015369;28;20056;-73
2023/08/18 01:21:51;;;;;;;7.65;4.60;;;;;;;20.32;100.00;100373.78;5012292;28;20497;-74
2023/08/18 01:24:24;;;;;;;4.90;4.47;;;;;;;20.31;100.00;100390.88;4982795;28;20058;-73
2023/08/18 01:26:57;;;;;;;5.70;5.20;;;;;;;20.31;100.00;100386.38;4997894;28;20128;-74
2023/08/18 01:29:27;;;;;;;5.63;4.78;;;;;;;20.25;100.00;100386.06;5014338;28;20152;-73
2023/08/18 01:32:01;;;;;;;6.70;5.07;;;;;;;20.22;100.00;100391.69;5033136;28;20136;-73
2023/08/18 01:34:31;;;;;;;6.97;4.55;;;;;;;20.20;100.00;100390.97;5011902;28;20041;-73
2023/08/18 01:37:05;;;;;;;7.05;5.13;;;;;;;20.14;100.00;100386.16;4997253;28;20139;-74
2023/08/18 01:39:43;;;;;;;7.07;5.10;;;;;;;20.11;100.00;100387.28;5011185;28;20049;-74
2023/08/18 01:42:13;;;;;;;5.63;4.93;;;;;;;20.07;100.00;100382.28;5015964;28;20064;-73
2023/08/18 01:44:41;;;;;;;5.72;5.22;;;;;;;20.05;100.00;100385.09;5031567;28;20566;-74
2023/08/18 01:47:11;;;;;;;7.55;5.70;;;;;;;20.01;100.00;100374.75;5012586;28;20045;-73
2023/08/18 01:49:42;;;;;;;5.90;5.30;;;;;;;19.96;100.00;100377.84;5029568;28;20377;-73
2023/08/18 01:52:11;;;;;;;7.13;5.95;;;;;;;19.93;100.00;100370.03;5016225;28;20056;-75
2023/08/18 01:54:46;;;;;;;7.03;6.15;;;;;;;19.87;100.00;100370.56;5013775;28;20045;-75
2023/08/18 01:57:14;;;;;;;6.13;5.47;;;;;;;19.82;100.00;100364.75;5025118;28;20060;-73
2023/08/18 01:59:45;;;;;;;9.20;6.20;;;;;;;19.82;100.00;100364.75;5011709;28;20657;-73
2023/08/18 02:02:13;;;;;;;6.43;5.78;;;;;;;19.79;100.00;100363.16;5030477;28;20080;-74
2023/08/18 02:04:42;;;;;;;5.97;5.47;;;;;;;19.75;100.00;100359.03;5000187;28;20115;-73
2023/08/18 02:07:10;;;;;;;6.40;5.78;;;;;;;19.76;100.00;100359.88;5033655;28;20056;-73
2023/08/18 02:09:40;;;;;;;8.27;6.35;;;;;;;19.72;100.00;100350.38;5008548;28;20091;-73
2023/08/18 02:12:12;;;;;;;6.68;6.07;;;;;;;19.72;100.00;100350.38;5041513;28;20048;-74
2023/08/18 02:14:40;;;;;;;7.20;5.55;;;;;;;19.70;100.00;100339.75;5035954;28;20069;-73
2023/08/18 02:17:12;;;;;;;6.53;5.50;;;;;;;19.70;100.00;100342.44;4998945;28;20038;-73
2023/08/18 02:19:43;;;;;;;6.88;5.47;;;;;;;19.68;100.00;100343.56;5017966;28;20042;-73
2023/08/18 02:22:13;;;;;;;8.88;6.18;;;;;;;19.63;100.00;100349.34;5051805;28;20354;-73
2023/08/18 02:24:45;;;;;;;8.35;5.90;;;;;;;19.63;100.00;100349.34;5044466;28;20057;-73
2023/08/18 02:27:15;;;;;;;6.68;6.05;;;;;;;19.65;100.00;100352.75;5015617;28;20045;-73
2023/08/18 02:29:44;;;;;;;10.00;5.93;;;;;;;19.65;100.00;100349.22;5016664;28;20033;-73
2023/08/18 02:32:12;;;;;;;7.60;5.57;;;;;;;19.66;100.00;100337.50;5018547;28;20097;-73
2023/08/18 02:34:43;;;;;;;7.00;5.80;;;;;;;19.67;100.00;100349.94;5015878;28;20041;-73
2023/08/18 02:37:13;;;;;;;8.02;6.20;;;;;;;19.58;100.00;100322.00;5031885;28;20038;-75
2023/08/18 02:39:42;;;;;;;7.10;6.05;;;;;;;19.64;100.00;100344.81;5024160;28;20065;-73
2023/08/18 02:42:11;;;;;;;8.63;6.05;;;;;;;19.57;100.00;100341.78;5016253;28;20132;-72
2023/08/18 02:44:41;;;;;;;6.65;6.00;;;;;;;19.51;100.00;100339.66;4998673;28;20049;-73
2023/08/18 02:47:10;;;;;;;8.63;6.53;;;;;;;19.42;100.00;100327.81;5009856;28;20045;-73
2023/08/18 02:49:39;;;;;;;7.97;6.35;;;;;;;19.46;100.00;100342.69;5029717;28;20413;-74
2023/08/18 02:52:12;;;;;;;7.07;6.35;;;;;;;19.44;100.00;100341.09;5016397;28;20083;-73
2023/08/18 02:54:41;;;;;;;7.57;6.87;;;;;;;19.42;100.00;100343.06;5009326;28;20136;-74
2023/08/18 02:57:08;;;;;;;8.68;6.45;;;;;;;19.36;100.00;100328.31;5012334;28;20103;-73
2023/08/18 02:59:40;;;;;;;9.95;6.60;;;;;;;19.37;100.00;100338.06;5038662;28;20039;-73
2023/08/18 03:02:11;;;;;;;7.78;6.97;;;;;;;19.38;100.00;100336.25;5016767;28;20060;-74
2023/08/18 03:04:39;;;;;;;10.50;7.40;;;;;;;19.33;100.00;100330.44;4998847;28;20132;-74
2023/08/18 03:07:08;;;;;;;9.10;6.47;;;;;;;19.25;100.00;100318.50;5010111;28;20050;-74
2023/08/18 03:09:36;;;;;;;7.43;6.60;;;;;;;19.34;100.00;100338.34;5018220;28;20045;-75
2023/08/18 03:12:05;;;;;;;7.95;6.78;;;;;;;19.32;100.00;100344.84;5017771;28;20049;-74
2023/08/18 03:14:41;;;;;;;7.43;6.82;;;;;;;19.26;100.00;100339.00;4999930;28;20047;-73
2023/08/18 03:17:11;;;;;;;;;;;;;;;19.24;100.00;100340.94;5023944;28;20158;-74
2023/08/18 03:19:41;;;;;;;7.32;6.50;;;;;;;19.20;100.00;100338.66;5035179;28;19924;-73
2023/08/18 03:22:09;;;;;;;7.38;6.60;;;;;;;19.15;100.00;100341.72;5017950;28;20072;-72
2023/08/18 03:24:40;;;;;;;9.32;7.55;;;;;;;19.19;100.00;100345.03;5028349;28;20077;-72
2023/08/18 03:27:11;;;;;;;8.98;7.53;;;;;;;19.09;100.00;100334.19;5009949;28;20717;-74
2023/08/18 03:29:42;;;;;;;8.70;7.68;;;;;;;19.13;100.00;100348.19;5035972;28;20521;-75
2023/08/18 03:32:13;;;;;;;8.57;7.68;;;;;;;19.16;100.00;100347.94;5036084;28;20096;-75
2023/08/18 03:34:43;;;;;;;9.43;7.20;;;;;;;19.14;100.00;100348.06;5035358;28;20069;-73
2023/08/18 03:37:13;;;;;;;9.50;8.15;;;;;;;19.13;100.00;100337.47;4998854;28;20045;-72
2023/08/18 03:39:44;;;;;;;8.40;7.20;;;;;;;19.10;100.00;100338.56;5013273;28;20045;-72
2023/08/18 03:42:13;;;;;;;11.65;7.85;;;;;;;19.07;100.00;100340.66;5000079;28;20503;-73
2023/08/18 03:44:49;;;;;;;9.52;7.90;;;;;;;19.04;100.00;100340.94;5031448;28;20049;-74
2023/08/18 03:47:21;;;;;;;9.63;8.68;;;;;;;19.04;100.00;100340.94;5028932;28;20038;-73
2023/08/18 03:49:50;;;;;;;9.50;8.50;;;;;;;18.96;100.00;100327.28;5018384;28;20053;-73
2023/08/18 03:52:18;;;;;;;11.38;8.55;;;;;;;18.98;100.00;100339.59;5035897;28;20037;-73
2023/08/18 03:54:49;;;;;;;9.57;8.48;;;;;;;19.02;100.00;100346.41;5037446;28;20038;-74
2023/08/18 03:57:19;;;;;;;10.52;9.18;;;;;;;19.04;100.00;100340.94;5007245;28;20057;-74
2023/08/18 03:59:47;;;;;;;11.23;8.98;;;;;;;19.01;100.00;100355.44;5008630;28;20050;-73
2023/08/18 04:02:16;;;;;;;9.18;8.23;;;;;;;19.01;100.00;100357.28;5022072;28;20509;-74
2023/08/18 04:04:48;;;;;;;10.98;8.43;;;;;;;18.97;100.00;100356.66;5018804;28;20046;-74
2023/08/18 04:07:17;;;;;;;12.02;9.02;;;;;;;18.96;100.00;100357.66;5011341;28;20038;-74
2023/08/18 04:09:47;;;;;;;14.05;8.52;;;;;;;18.97;100.00;100362.03;5017766;28;20041;-74
2023/08/18 04:12:17;;;;;;;11.48;8.32;;;;;;;18.99;100.00;100356.53;5027130;28;20104;-74
2023/08/18 04:14:45;;;;;;;13.20;8.90;;;;;;;18.98;100.00;100354.84;4998348;28;20057;-74
2023/08/18 04:17:18;;;;;;;12.07;8.20;;;;;;;18.89;100.00;100343.00;5002819;28;20052;-74
2023/08/18 04:19:50;;;;;;;;;;;;;;;18.96;100.00;100363.00;5018478;28;20075;-75
2023/08/18 04:22:23;;;;;;;11.25;8.38;;;;;;;18.93;100.00;100360.56;5010875;28;20292;-73
2023/08/18 04:24:51;;;;;;;8.65;7.75;;;;;;;18.92;100.00;100361.56;4985509;28;20045;-74
2023/08/18 04:27:20;;;;;;;8.95;8.05;;;;;;;18.89;100.00;100361.78;5020548;28;20042;-73
2023/08/18 04:29:49;;;;;;;9.57;8.00;;;;;;;18.89;100.00;100370.69;5015222;28;20056;-73
2023/08/18 04:32:19;;;;;;;10.68;9.38;;;;;;;18.91;100.00;100371.44;4994247;28;20095;-74
2023/08/18 04:34:57;;;;;;;12.50;9.25;;;;;;;18.91;100.00;100378.63;5032473;28;20037;-74
2023/08/18 04:37:30;;;;;;;11.38;8.95;;;;;;;18.88;100.00;100371.72;5038243;28;20052;-73
2023/08/18 04:40:04;;;;;;;11.93;9.75;;;;;;;18.85;100.00;100373.78;5010056;28;20053;-73
2023/08/18 04:42:33;;;;;;;13.20;8.93;;;;;;;18.83;100.00;100376.59;5024185;28;20037;-74
2023/08/18 04:45:02;;;;;;;14.93;9.63;;;;;;;18.85;100.00;100384.50;5009163;28;20054;-75
2023/08/18 04:47:32;;;;;;;10.40;9.35;;;;;;;18.78;100.00;100375.25;5012422;28;20053;-74
2023/08/18 04:50:06;;;;;;;9.88;8.93;;;;;;;18.85;100.00;100389.88;5011240;28;20080;-74
2023/08/18 04:52:37;;;;;;;11.27;9.40;;;;;;;18.88;100.00;100395.84;5007761;28;20116;-73
2023/08/18 04:55:06;;;;;;;10.38;9.32;;;;;;;18.85;100.00;100382.69;4982787;28;20050;-74
2023/08/18 04:57:36;;;;;;;10.48;9.40;;;;;;;18.91;100.00;100392.91;4983407;28;20049;-73
2023/08/18 05:00:06;;;;;;;13.18;9.90;;;;;;;18.92;100.00;100394.59;4980699;28;20045;-73
2023/08/18 05:02:35;;;;;;;11.10;9.98;;;;;;;18.95;100.00;100401.56;4988409;28;20046;-73
2023/08/18 05:05:08;;;;;;;14.68;10.20;;;;;;;19.00;100.00;100394.00;5007944;28;20068;-73
2023/08/18 05:07:37;;;;;;;11.93;10.60;;;;;;;19.00;100.00;100387.78;4988056;28;20039;-73
2023/08/18 05:10:05;;;;;;;13.93;11.35;;;;;;;19.02;100.00;100391.19;4995597;28;20113;-73
2023/08/18 05:12:34;;;;;;;12.38;10.43;;;;;;;19.08;100.00;100383.47;4977893;28;20112;-73
2023/08/18 05:15:04;;;;;;;13.00;10.40;;;;;;;19.03;100.00;100384.84;5004578;28;20073;-73
2023/08/18 05:17:32;;;;;;;10.75;9.65;;;;;;;18.99;100.00;100378.88;4981275;28;20121;-73
2023/08/18 05:20:00;;;;;;;11.05;9.82;;;;;;;18.98;100.00;100379.84;4989638;28;20046;-73
2023/08/18 05:22:32;;;;;;;11.98;9.88;;;;;;;19.05;100.00;100381.03;4989036;28;20391;-73
2023/08/18 05:25:01;;;;;;;10.88;9.68;;;;;;;19.00;100.00;100367.16;5007778;28;20459;-73
2023/08/18 05:27:30;;;;;;;10.63;9.03;;;;;;;19.06;100.00;100376.50;5018276;28;20125;-74
2023/08/18 05:29:59;;;;;;;11.73;9.93;;;;;;;19.13;100.00;100381.25;5009058;28;20053;-73
2023/08/18 05:32:29;;;;;;;11.55;9.95;;;;;;;19.06;100.00;100372.00;4990969;28;20617;-73
2023/08/18 05:35:00;;;;;;;;;;;;;;;19.18;100.00;100389.81;5009549;28;20042;-76
2023/08/18 05:37:28;;;;;;;10.27;9.27;;;;;;;19.22;100.00;100396.59;4994873;28;19936;-75
2023/08/18 05:40:00;;;;;;;13.18;8.60;;;;;;;19.19;100.00;100383.44;4996182;28;20081;-73
2023/08/18 05:42:30;;;;;;;11.05;9.43;;;;;;;19.26;100.00;100387.31;5003823;28;20034;-72
2023/08/18 05:44:59;;;;;;;12.13;9.82;;;;;;;19.34;100.00;100386.69;4991221;28;20061;-72
2023/08/18 05:47:30;;;;;;;11.55;9.65;;;;;;;19.39;100.00;100395.19;4980158;28;20498;-73
2023/08/18 05:50:00;;;;;;;12.57;8.93;;;;;;;19.33;100.00;100376.06;4980068;28;20153;-73
2023/08/18 05:52:30;;;;;;;10.90;8.00;;;;;;;19.46;100.00;100391.03;4978874;28;20053;-74
2023/08/18 05:55:00;;;;;;;11.95;7.90;;;;;;;19.57;100.00;100392.84;5014940;28;20046;-74
2023/08/18 05:57:30;;;;;;;11.55;8.57;;;;;;;19.64;100.00;100402.09;4986844;28;20452;-73
2023/08/18 05:59:59;;;;;;;9.85;8.85;;;;;;;19.66;100.00;100401.97;4996157;28;20135;-73
2023/08/18 06:02:27;;;;;;;13.40;8.73;;;;;;;19.76;100.00;100411.78;4995883;28;20582;-73
2023/08/18 06:05:01;;;;;;;8.73;7.82;;;;;;;19.80;100.00;100412.38;4995705;28;20448;-73
2023/08/18 06:07:30;;;;;;;9.40;7.57;;;;;;;19.88;100.00;100410.75;4980045;28;20054;-73
2023/08/18 06:10:02;;;;;;;10.07;7.90;;;;;;;19.99;100.00;100406.31;4987793;28;20050;-72
2023/08/18 06:12:30;;;;;;;7.40;6.70;;;;;;;20.01;100.00;100405.16;5012142;28;20049;-73
2023/08/18 06:14:58;;;;;;;7.72;7.03;;;;;;;20.12;100.00;100417.69;4983109;28;20049;-72
2023/08/18 06:17:27;;;;;;;9.27;7.10;;;;;;;20.15;100.00;100399.44;4983463;28;20053;-74
2023/08/18 06:19:56;;;;;;;8.40;6.85;;;;;;;20.30;100.00;100413.41;5015857;28;20046;-73
2023/08/18 06:22:24;;;;;;;10.20;6.55;;;;;;;20.38;100.00;100413.63;4995922;28;20046;-72
2023/08/18 06:24:53;;;;;;;8.98;7.00;;;;;;;20.47;100.00;100409.25;5005287;28;20305;-71
2023/08/18 06:27:24;;;;;;;10.93;6.60;;;;;;;20.62;100.00;100411.44;5004098;28;20073;-72
2023/08/18 06:29:54;;;;;;;;;;;;;;;20.73;100.00;100407.81;5006030;28;20046;-72
2023/08/18 06:32:22;;;;;;;6.65;6.05;;;;;;;20.96;100.00;100414.66;4999631;28;19925;-72
2023/08/18 06:34:51;;;;;;;7.38;6.05;;;;;;;21.21;100.00;100407.13;4983751;28;20098;-72
2023/08/18 06:37:22;;;;;;;8.63;6.55;;;;;;;21.44;100.00;100413.94;5011314;28;20123;-73
2023/08/18 06:39:51;;;;;;;6.68;5.90;;;;;;;21.65;100.00;100416.50;4995926;28;20054;-72
2023/08/18 06:42:24;;;;;;;6.68;5.80;;;;;;;21.84;100.00;100410.25;4990000;28;20418;-73
2023/08/18 06:44:52;;;;;;;6.05;5.38;;;;;;;22.12;100.00;100420.16;4997070;28;20060;-73
2023/08/18 06:47:22;;;;;;;7.10;5.07;;;;;;;22.32;100.00;100415.56;4981429;28;20054;-73
2023/08/18 06:49:56;;;;;;;7.75;5.65;;;;;;;22.46;100.00;100417.78;4996555;28;20149;-73
2023/08/18 06:52:26;;;;;;;6.38;5.55;;;;;;;22.66;100.00;100423.97;5006110;28;20037;-73
2023/08/18 06:54:57;;;;;;;6.13;5.32;;;;;;;22.84;100.00;100414.06;4993981;28;20046;-73
2023/08/18 06:57:30;;;;;;;7.50;4.63;;;;;;;23.12;100.00;100425.75;4996932;28;20056;-75
2023/08/18 06:59:58;;;;;;;6.85;5.15;;;;;;;23.33;100.00;100422.72;5002150;28;20422;-73
2023/08/18 07:02:26;;;;;;;7.70;5.03;;;;;;;23.56;100.00;100423.19;4978584;28;20061;-72
2023/08/18 07:04:54;;;;;;;6.07;5.32;;;;;;;23.79;100.00;100417.13;4991735;28;20060;-72
2023/08/18 07:07:23;;;;;;;4.95;4.55;;;;;;;24.02;100.00;100405.81;4994590;28;20536;-72
2023/08/18 07:09:52;;;;;;;7.45;4.68;;;;;;;24.18;100.00;100418.59;5002175;28;20069;-73
2023/08/18 07:12:22;;;;;;;8.68;4.93;;;;;;;24.26;100.00;100426.78;5016494;28;20056;-73
2023/08/18 07:14:53;;;;;;;7.78;5.05;;;;;;;24.22;100.00;100414.56;4996752;28;20069;-73
2023/08/18 07:17:22;;;;;;;5.63;4.35;;;;;;;24.33;100.00;100417.03;4986427;28;20049;-74
2023/08/18 07:19:50;;;;;;;7.00;4.78;;;;;;;24.56;100.00;100429.00;4999950;28;20450;-74
2023/08/18 07:22:21;;;;;;;7.45;4.40;;;;;;;24.76;100.00;100419.63;4989792;28;20048;-74
2023/08/18 07:24:52;;;;;;;8.97;4.50;;;;;;;24.87;100.00;100420.38;4993021;28;20049;-73
2023/08/18 07:27:22;;;;;;;7.90;4.22;;;;;;;24.96;100.00;100411.28;4996982;28;20568;-75
2023/08/18 07:29:53;;;;;;;5.00;4.13;;;;;;;25.04;100.00;100414.00;4996300;28;20042;-75
2023/08/18 07:32:23;;;;;;;5.20;4.70;;;;;;;25.22;100.00;100419.31;4986008;28;20065;-73
2023/08/18 07:34:51;;;;;;;5.38;4.03;;;;;;;25.16;100.00;100418.97;4997518;28;20057;-74
2023/08/18 07:37:20;;;;;;;6.28;3.97;;;;;;;25.25;100.00;100414.41;4996508;28;20046;-74
2023/08/18 07:40:10;;;;;;;4.30;3.90;;;;;;;25.41;100.00;100416.31;4991195;28;20161;-74
2023/08/18 07:42:38;;;;;;;4.38;3.97;;;;;;;25.55;100.00;100423.78;4992275;28;20142;-74
2023/08/18 07:45:10;;;;;;;5.60;3.97;;;;;;;25.73;100.00;100432.63;5013494;28;20058;-74
2023/08/18 07:47:42;;;;;;;6.00;4.10;;;;;;;25.81;100.00;100427.19;5011354;28;20062;-74
2023/08/18 07:50:11;;;;;;;5.15;3.80;;;;;;;25.90;100.00;100429.94;5001332;28;20129;-74
2023/08/18 07:52:42;;;;;;;7.28;3.75;;;;;;;26.14;100.00;100428.03;4975456;28;20057;-74
2023/08/18 07:55:13;;;;;;;4.85;3.85;;;;;;;26.30;100.00;100423.63;4985010;28;20124;-75
2023/08/18 07:57:41;;;;;;;6.63;3.90;;;;;;;26.42;100.00;100427.69;4995993;28;20045;-74
2023/08/18 08:00:17;;;;;;;6.05;4.13;;;;;;;26.60;100.00;100428.34;4998284;28;20042;-74
2023/08/18 08:02:48;;;;;;;4.18;3.72;;;;;;;26.76;97.08;100424.72;5009362;28;20061;-74
2023/08/18 08:05:19;;;;;;;7.25;3.88;;;;;;;26.87;96.24;100432.47;4994282;28;20085;-74
2023/08/18 08:07:50;;;;;;;5.18;3.85;;;;;;;26.85;95.21;100435.38;4997324;28;20460;-74
2023/08/18 08:10:20;;;;;;;5.28;4.10;;;;;;;26.87;96.35;100427.03;4994787;28;20045;-75
2023/08/18 08:12:49;;;;;;;5.93;4.07;;;;;;;27.03;96.47;100428.88;4990989;28;20037;-73
2023/08/18 08:15:21;;;;;;;4.38;3.88;;;;;;;27.15;92.82;100427.44;5008324;28;20622;-73
2023/08/18 08:17:51;;;;;;;6.10;3.65;;;;;;;27.16;89.61;100429.13;4995216;28;20133;-73
2023/08/18 08:20:19;;;;;;;8.65;3.95;;;;;;;27.11;92.11;100434.25;5008329;28;20110;-74
2023/08/18 08:22:51;;;;;;;7.55;3.53;;;;;;;26.90;89.80;100430.25;5005772;28;20249;-75
2023/08/18 08:25:21;;;;;;;4.70;3.95;;;;;;;26.84;91.11;100430.09;4998369;28;20418;-73
2023/08/18 08:27:51;;;;;;;5.15;3.63;;;;;;;26.76;90.93;100430.97;4976667;28;20050;-74
2023/08/18 08:30:30;;;;;;;7.22;4.07;;;;;;;26.72;89.19;100436.94;4981324;28;20045;-74
2023/08/18 08:33:08;;;;;;;3.88;3.50;;;;;;;26.77;89.42;100427.22;5007718;28;20090;-74
2023/08/18 08:35:37;;;;;;;4.90;3.50;;;;;;;26.71;87.94;100430.66;4992739;28;20050;-75
2023/08/18 08:38:06;;;;;;;4.68;4.13;;;;;;;26.78;91.62;100430.78;4977681;28;20341;-74
2023/08/18 08:40:40;;;;;;;4.32;3.50;;;;;;;26.85;89.52;100416.34;4993151;28;20137;-74
2023/08/18 08:43:16;;;;;;;5.35;3.85;;;;;;;26.85;92.05;100413.63;4986120;28;20046;-74
2023/08/18 08:45:49;;;;;;;6.53;3.88;;;;;;;26.99;88.66;100420.22;4979351;28;20129;-74
2023/08/18 08:48:23;;;;;;;5.00;3.60;;;;;;;27.14;86.60;100420.31;4997251;28;20077;-74
2023/08/18 08:50:56;;;;;;;6.53;3.80;;;;;;;27.18;84.82;100414.34;4986926;28;20396;-74
2023/08/18 08:53:32;;;;;;;6.53;3.92;;;;;;;27.30;83.17;100425.66;4990027;28;20050;-74
2023/08/18 08:56:02;;;;;;;4.40;3.80;;;;;;;27.47;82.54;100432.69;4992669;28;20498;-74
2023/08/18 08:58:37;;;;;;;7.28;3.80;;;;;;;27.78;79.66;100426.34;4995779;28;20081;-75
2023/08/18 09:01:09;;;;;;;4.80;3.70;;;;;;;28.31;76.89;100417.22;4993329;28;20053;-74
2023/08/18 09:03:44;;;;;;;3.80;3.40;;;;;;;28.75;70.50;100422.69;4992623;28;20104;-73
2023/08/18 09:06:16;;;;;;;7.53;3.92;;;;;;;28.70;72.25;100414.22;4994927;28;20521;-74
2023/08/18 09:08:46;;;;;;;5.88;3.75;;;;;;;28.11;72.62;100422.31;4996000;28;20052;-75
2023/08/18 09:11:14;;;;;;;5.93;4.00;;;;;;;27.68;77.01;100423.06;4994687;28;20136;-74
2023/08/18 09:13:48;;;;;;;;;;;;;;;27.61;77.37;100422.06;4973890;28;20042;-74
2023/08/18 09:16:19;;;;;;;7.28;3.53;;;;;;;27.46;78.70;100417.38;4974731;28;20294;-76
2023/08/18 09:18:55;;;;;;;4.03;3.55;;;;;;;27.49;78.29;100411.59;4999083;28;20069;-75
2023/08/18 09:21:27;;;;;;;5.97;3.50;;;;;;;27.76;74.78;100414.81;4976728;28;20042;-74
2023/08/18 09:23:56;;;;;;;5.28;3.50;;;;;;;27.59;73.70;100408.66;4991672;28;20069;-73
2023/08/18 09:26:29;;;;;;;5.18;3.80;;;;;;;27.35;77.60;100411.53;4983163;28;20072;-75
2023/08/18 09:28:59;;;;;;;5.97;4.05;;;;;;;27.13;79.36;100411.31;4996500;28;20660;-74
2023/08/18 09:31:30;;;;;;;5.75;4.07;;;;;;;26.86;79.88;100399.03;4994977;28;20052;-74
2023/08/18 09:33:59;;;;;;;6.47;4.07;;;;;;;26.78;81.12;100404.47;5015989;28;20581;-75
2023/08/18 09:36:31;;;;;;;5.82;3.58;;;;;;;26.64;81.71;100399.78;5019192;28;20510;-75
2023/08/18 09:39:05;;;;;;;6.47;3.75;;;;;;;26.67;83.06;100402.16;5005898;28;20053;-74
2023/08/18 09:41:39;;;;;;;7.00;4.00;;;;;;;26.64;79.39;100398.94;5013142;28;20049;-74
2023/08/18 09:44:09;;;;;;;4.45;3.88;;;;;;;26.56;80.70;100394.38;4974654;28;20054;-75
2023/08/18 09:46:39;;;;;;;5.50;3.45;;;;;;;26.56;82.75;100402.53;5000495;28;20050;-75
2023/08/18 09:49:11;;;;;;;4.50;3.47;;;;;;;26.55;83.38;100390.81;5001425;28;20057;-75
2023/08/18 09:51:40;;;;;;;5.90;3.90;;;;;;;26.46;84.32;100369.28;4997632;28;20046;-74
2023/08/18 09:54:11;;;;;;;6.07;3.70;;;;;;;26.76;82.93;100395.66;4990734;28;20057;-75
2023/08/18 09:56:46;;;;;;;8.13;3.83;;;;;;;26.89;83.09;100404.09;4984176;28;20061;-75
2023/08/18 09:59:20;;;;;;;5.05;3.75;;;;;;;27.05;82.28;100394.19;4996963;28;20541;-74
2023/08/18 10:01:52;;;;;;;6.57;3.83;;;;;;;27.08;79.26;100381.06;5010019;28;20041;-74
2023/08/18 10:04:26;;;;;;;6.55;3.90;;;;;;;27.27;77.94;100398.81;4995596;28;20056;-74
2023/08/18 10:06:54;;;;;;;5.05;3.75;;;;;;;27.34;74.86;100391.63;5013633;28;20049;-74
2023/08/18 10:09:33;;;;;;;9.23;3.83;;;;;;;27.39;72.37;100391.91;4995051;28;20050;-74
2023/08/18 10:12:03;;;;;;;4.53;3.22;;;;;;;27.36;73.85;100381.44;4997249;28;20137;-73
2023/08/18 10:14:32;;;;;;;5.30;3.63;;;;;;;27.45;71.21;100390.38;5010698;28;20045;-75
2023/08/18 10:17:03;;;;;;;5.88;3.53;;;;;;;27.47;72.27;100378.28;4996510;28;20072;-74
2023/08/18 10:19:48;;;;;;;5.13;3.75;;;;;;;27.61;72.77;100382.13;4993856;28;20410;-74
2023/08/18 10:22:17;;;;;;;5.18;3.33;;;;;;;27.67;71.89;100375.09;4996356;28;20144;-74
2023/08/18 10:24:49;;;;;;;6.20;3.80;;;;;;;27.76;71.37;100377.56;4993198;28;20045;-74
2023/08/18 10:27:32;;;;;;;6.50;3.72;;;;;;;27.91;71.35;100383.03;4995287;28;20516;-74
2023/08/18 10:30:02;;;;;;;3.97;3.15;;;;;;;27.95;68.79;100376.19;4984085;28;20042;-74
2023/08/18 10:32:37;;;;;;;9.48;5.25;;;;;;;28.01;66.93;100374.63;4983798;28;20057;-76
2023/08/18 10:35:19;;;;;;;6.82;3.67;;;;;;;28.15;67.22;100371.06;5012979;28;20073;-75
2023/08/18 10:37:49;;;;;;;5.20;3.17;;;;;;;28.22;64.68;100364.72;5003386;28;20113;-74
2023/08/18 10:40:26;;;;;;;4.82;3.30;;;;;;;28.32;64.91;100353.56;5018009;28;20136;-74
2023/08/18 10:42:59;;;;;;;6.10;3.70;;;;;;;28.39;63.21;100348.19;4977831;28;20058;-76
2023/08/18 10:45:30;;;;;;;5.68;3.75;;;;;;;28.50;63.67;100347.72;4994309;28;20054;-74
2023/08/18 10:48:04;;;;;;;3.65;3.20;;;;;;;28.50;65.77;100328.63;5000433;28;20054;-74
2023/08/18 10:50:35;;;;;;;5.30;3.40;;;;;;;28.70;61.88;100339.78;4993680;28;20053;-75
2023/08/18 10:53:04;;;;;;;5.30;3.65;;;;;;;28.75;63.21;100346.38;5011833;28;20049;-74
2023/08/18 10:55:35;;;;;;;5.82;3.72;;;;;;;28.74;62.07;100346.56;4983610;28;20137;-74
2023/08/18 10:58:05;;;;;;;4.03;3.28;;;;;;;28.68;61.93;100333.69;5000358;28;20054;-74
2023/08/18 11:00:35;;;;;;;3.85;3.13;;;;;;;28.82;61.10;100339.13;4997932;28;20069;-75
2023/08/18 11:03:07;;;;;;;6.13;3.33;;;;;;;28.94;60.72;100329.44;5010521;28;20577;-74
2023/08/18 11:05:36;;;;;;;6.88;3.90;;;;;;;29.13;61.98;100327.94;4993489;28;20061;-75
2023/08/18 11:08:07;;;;;;;5.90;3.42;;;;;;;29.28;59.40;100326.00;5012651;28;20507;-74
2023/08/18 11:10:43;;;;;;;5.05;3.45;;;;;;;29.36;59.65;100316.03;5000316;28;20494;-74
2023/08/18 11:13:23;;;;;;;5.30;3.50;;;;;;;29.46;57.52;100325.59;4993539;28;20122;-74
2023/08/18 11:15:54;;;;;;;5.18;2.92;;;;;;;29.48;58.34;100331.69;4981029;28;20053;-74
2023/08/18 11:18:31;;;;;;;7.55;3.53;;;;;;;29.46;59.03;100330.19;5015025;28;20046;-74
2023/08/18 11:21:04;;;;;;;6.25;3.55;;;;;;;29.37;58.13;100329.47;4998265;28;20092;-74
2023/08/18 11:23:33;;;;;;;5.88;3.30;;;;;;;29.15;60.52;100325.03;4994239;28;20910;-75
2023/08/18 11:26:05;;;;;;;11.43;3.50;;;;;;;29.13;61.20;100327.09;5008189;28;20056;-74
2023/08/18 11:28:33;;;;;;;4.60;3.10;;;;;;;29.25;59.96;100323.69;4995405;28;20076;-74
2023/08/18 11:31:05;;;;;;;5.70;3.20;;;;;;;29.42;59.06;100326.19;5014286;28;20050;-74
2023/08/18 11:33:35;;;;;;;5.10;3.20;;;;;;;29.51;57.82;100322.28;4991019;28;20049;-74
2023/08/18 11:36:08;;;;;;;5.05;3.30;;;;;;;29.62;57.71;100321.75;5014289;28;20068;-74